sensor_id;sensor_type;location;lat;lon;timestamp;pressure;altitude;pressure_sealevel;temperature;humidity
43364;BME280;40636;52.424;-1.948;2022-07-29T00:02:27;100195.06;;;16.62;65.54
43364;BME280;40636;52.424;-1.948;2022-07-29T00:04:54;100188.44;;;16.58;65.56
43364;BME280;40636;52.424;-1.948;2022-07-29T00:07:21;100192.06;;;16.54;65.78
43364;BME280;40636;52.424;-1.948;2022-07-29T00:09:48;100182.66;;;16.49;65.23
43364;BME280;40636;52.424;-1.948;2022-07-29T00:12:22;100183.72;;;16.48;65.52
43364;BME280;40636;52.424;-1.948;2022-07-29T00:14:52;100182.09;;;16.47;65.77
43364;BME280;40636;52.424;-1.948;2022-07-29T00:17:19;100182.94;;;16.43;65.02
43364;BME280;40636;52.424;-1.948;2022-07-29T00:19:46;100187.34;;;16.44;65.90
43364;BME280;40636;52.424;-1.948;2022-07-29T00:22:13;100184.88;;;16.42;65.64
43364;BME280;40636;52.424;-1.948;2022-07-29T00:24:40;100185.72;;;16.38;66.45
43364;BME280;40636;52.424;-1.948;2022-07-29T00:27:07;100186.84;;;16.37;65.68
43364;BME280;40636;52.424;-1.948;2022-07-29T00:29:34;100189.63;;;16.37;65.54
43364;BME280;40636;52.424;-1.948;2022-07-29T00:32:01;100185.19;;;16.36;65.32
43364;BME280;40636;52.424;-1.948;2022-07-29T00:34:29;100179.13;;;16.29;66.03
43364;BME280;40636;52.424;-1.948;2022-07-29T00:37:14;100174.69;;;16.28;66.18
43364;BME280;40636;52.424;-1.948;2022-07-29T00:39:41;100181.91;;;16.23;66.09
43364;BME280;40636;52.424;-1.948;2022-07-29T00:42:08;100181.94;;;16.18;66.26
43364;BME280;40636;52.424;-1.948;2022-07-29T00:44:40;100182.22;;;16.22;65.84
43364;BME280;40636;52.424;-1.948;2022-07-29T00:47:08;100187.44;;;16.23;65.65
43364;BME280;40636;52.424;-1.948;2022-07-29T00:49:36;100181.09;;;16.23;66.12
43364;BME280;40636;52.424;-1.948;2022-07-29T00:52:05;100181.91;;;16.23;66.24
43364;BME280;40636;52.424;-1.948;2022-07-29T00:54:33;100188.59;;;16.17;66.25
43364;BME280;40636;52.424;-1.948;2022-07-29T00:57:06;100184.72;;;16.13;67.48
43364;BME280;40636;52.424;-1.948;2022-07-29T00:59:34;100186.94;;;16.11;67.05
43364;BME280;40636;52.424;-1.948;2022-07-29T01:02:02;100188.03;;;16.10;67.77
43364;BME280;40636;52.424;-1.948;2022-07-29T01:04:30;100181.41;;;16.06;68.43
43364;BME280;40636;52.424;-1.948;2022-07-29T01:06:58;100185.28;;;16.05;67.60
43364;BME280;40636;52.424;-1.948;2022-07-29T01:09:27;100195.28;;;16.01;68.39
43364;BME280;40636;52.424;-1.948;2022-07-29T01:12:16;100186.97;;;15.96;68.39
43364;BME280;40636;52.424;-1.948;2022-07-29T01:14:45;100181.44;;;15.96;68.20
43364;BME280;40636;52.424;-1.948;2022-07-29T01:17:24;100183.66;;;15.99;67.39
43364;BME280;40636;52.424;-1.948;2022-07-29T01:31:00;100175.66;;;15.82;68.58
43364;BME280;40636;52.424;-1.948;2022-07-29T01:33:33;100186.72;;;15.82;68.79
43364;BME280;40636;52.424;-1.948;2022-07-29T01:36:23;100189.22;;;15.79;68.86
43364;BME280;40636;52.424;-1.948;2022-07-29T01:39:04;100186.47;;;15.79;68.59
43364;BME280;40636;52.424;-1.948;2022-07-29T01:41:34;100185.34;;;15.75;67.96
43364;BME280;40636;52.424;-1.948;2022-07-29T01:44:14;100187.84;;;15.71;68.41
43364;BME280;40636;52.424;-1.948;2022-07-29T01:46:50;100175.41;;;15.68;68.73
43364;BME280;40636;52.424;-1.948;2022-07-29T01:49:25;100185.91;;;15.66;68.79
43364;BME280;40636;52.424;-1.948;2022-07-29T01:52:03;100178.16;;;15.63;68.74
43364;BME280;40636;52.424;-1.948;2022-07-29T01:54:37;100186.47;;;15.63;69.18
43364;BME280;40636;52.424;-1.948;2022-07-29T01:57:08;100186.19;;;15.55;69.07
43364;BME280;40636;52.424;-1.948;2022-07-29T01:59:40;100187.84;;;15.56;69.17
43364;BME280;40636;52.424;-1.948;2022-07-29T02:02:10;100178.44;;;15.46;69.41
43364;BME280;40636;52.424;-1.948;2022-07-29T02:04:40;100173.19;;;15.45;70.01
43364;BME280;40636;52.424;-1.948;2022-07-29T02:07:11;100189.78;;;15.40;69.86
43364;BME280;40636;52.424;-1.948;2022-07-29T02:09:40;100182.31;;;15.40;69.87
43364;BME280;40636;52.424;-1.948;2022-07-29T02:12:09;100191.44;;;15.41;69.74
43364;BME280;40636;52.424;-1.948;2022-07-29T02:14:42;100189.78;;;15.40;71.64
43364;BME280;40636;52.424;-1.948;2022-07-29T02:17:10;100195.88;;;15.37;72.59
43364;BME280;40636;52.424;-1.948;2022-07-29T02:19:39;100187.56;;;15.32;73.69
43364;BME280;40636;52.424;-1.948;2022-07-29T02:22:08;100190.34;;;15.27;73.79
43364;BME280;40636;52.424;-1.948;2022-07-29T02:24:38;100182.59;;;15.23;72.10
43364;BME280;40636;52.424;-1.948;2022-07-29T02:27:07;100184.53;;;15.23;71.33
43364;BME280;40636;52.424;-1.948;2022-07-29T02:29:35;100185.34;;;15.18;71.54
43364;BME280;40636;52.424;-1.948;2022-07-29T02:32:04;100186.72;;;15.16;71.38
43364;BME280;40636;52.424;-1.948;2022-07-29T02:34:33;100187.84;;;15.15;72.21
43364;BME280;40636;52.424;-1.948;2022-07-29T02:37:01;100190.59;;;15.10;73.43
43364;BME280;40636;52.424;-1.948;2022-07-29T02:39:29;100192.53;;;15.09;72.87
43364;BME280;40636;52.424;-1.948;2022-07-29T02:42:03;100185.59;;;15.12;72.18
43364;BME280;40636;52.424;-1.948;2022-07-29T02:44:32;100191.41;;;15.10;72.13
43364;BME280;40636;52.424;-1.948;2022-07-29T02:47:39;100188.66;;;15.10;72.36
43364;BME280;40636;52.424;-1.948;2022-07-29T02:50:13;100184.50;;;15.08;72.70
43364;BME280;40636;52.424;-1.948;2022-07-29T02:52:49;100186.44;;;15.07;72.65
43364;BME280;40636;52.424;-1.948;2022-07-29T02:55:28;100182.59;;;15.08;73.18
43364;BME280;40636;52.424;-1.948;2022-07-29T03:00:50;100184.25;;;15.09;72.44
43364;BME280;40636;52.424;-1.948;2022-07-29T03:03:18;100185.06;;;15.05;73.65
43364;BME280;40636;52.424;-1.948;2022-07-29T03:05:46;100184.78;;;15.06;73.74
43364;BME280;40636;52.424;-1.948;2022-07-29T03:08:14;100191.69;;;15.04;73.25
43364;BME280;40636;52.424;-1.948;2022-07-29T03:10:46;100182.56;;;15.03;73.15
43364;BME280;40636;52.424;-1.948;2022-07-29T03:13:14;100179.78;;;15.03;73.96
43364;BME280;40636;52.424;-1.948;2022-07-29T03:15:43;100177.03;;;15.03;74.01
43364;BME280;40636;52.424;-1.948;2022-07-29T03:18:11;100182.00;;;15.06;73.42
43364;BME280;40636;52.424;-1.948;2022-07-29T03:20:39;100185.34;;;15.08;76.43
43364;BME280;40636;52.424;-1.948;2022-07-29T03:23:08;100187.00;;;15.04;74.27
43364;BME280;40636;52.424;-1.948;2022-07-29T03:25:35;100192.25;;;15.06;73.69
43364;BME280;40636;52.424;-1.948;2022-07-29T03:28:02;100183.41;;;15.09;74.90
43364;BME280;40636;52.424;-1.948;2022-07-29T03:30:29;100184.25;;;15.04;75.21
43364;BME280;40636;52.424;-1.948;2022-07-29T03:32:57;100182.31;;;15.05;73.71
43364;BME280;40636;52.424;-1.948;2022-07-29T03:35:24;100190.84;;;15.03;73.79
43364;BME280;40636;52.424;-1.948;2022-07-29T03:37:51;100176.47;;;15.01;74.31
43364;BME280;40636;52.424;-1.948;2022-07-29T03:40:26;100189.75;;;14.99;74.55
43364;BME280;40636;52.424;-1.948;2022-07-29T03:42:55;100193.59;;;14.98;74.42
43364;BME280;40636;52.424;-1.948;2022-07-29T03:45:22;100197.19;;;14.98;76.67
43364;BME280;40636;52.424;-1.948;2022-07-29T03:47:58;100199.41;;;15.02;73.97
43364;BME280;40636;52.424;-1.948;2022-07-29T03:50:28;100197.19;;;14.98;74.46
43364;BME280;40636;52.424;-1.948;2022-07-29T03:52:55;100201.91;;;14.98;74.48
43364;BME280;40636;52.424;-1.948;2022-07-29T03:55:22;100203.00;;;14.97;76.05
43364;BME280;40636;52.424;-1.948;2022-07-29T03:57:50;100201.91;;;14.98;75.58
43364;BME280;40636;52.424;-1.948;2022-07-29T04:00:18;100204.66;;;14.93;75.41
43364;BME280;40636;52.424;-1.948;2022-07-29T04:02:46;100203.53;;;14.94;74.93
43364;BME280;40636;52.424;-1.948;2022-07-29T04:05:15;100208.53;;;14.97;74.60
43364;BME280;40636;52.424;-1.948;2022-07-29T04:07:47;100205.22;;;14.95;74.79
43364;BME280;40636;52.424;-1.948;2022-07-29T04:10:15;100209.34;;;14.97;75.15
43364;BME280;40636;52.424;-1.948;2022-07-29T04:12:56;100203.00;;;14.97;75.04
43364;BME280;40636;52.424;-1.948;2022-07-29T04:15:22;100207.72;;;14.96;74.92
43364;BME280;40636;52.424;-1.948;2022-07-29T04:17:49;100204.09;;;14.91;75.60
43364;BME280;40636;52.424;-1.948;2022-07-29T04:20:16;100207.97;;;14.90;76.32
43364;BME280;40636;52.424;-1.948;2022-07-29T04:22:43;100205.22;;;14.95;75.20
43364;BME280;40636;52.424;-1.948;2022-07-29T04:25:10;100204.66;;;14.93;76.64
43364;BME280;40636;52.424;-1.948;2022-07-29T04:27:37;100204.94;;;14.91;76.88
43364;BME280;40636;52.424;-1.948;2022-07-29T04:30:24;100207.41;;;14.93;76.17
43364;BME280;40636;52.424;-1.948;2022-07-29T04:32:51;100214.34;;;14.90;76.74
43364;BME280;40636;52.424;-1.948;2022-07-29T04:35:19;100214.59;;;14.89;77.87
43364;BME280;40636;52.424;-1.948;2022-07-29T04:37:46;100207.13;;;14.89;77.31
43364;BME280;40636;52.424;-1.948;2022-07-29T04:40:13;100213.50;;;14.90;77.40
43364;BME280;40636;52.424;-1.948;2022-07-29T04:42:40;100205.75;;;14.92;77.87
43364;BME280;40636;52.424;-1.948;2022-07-29T04:45:13;100206.88;;;14.96;77.45
43364;BME280;40636;52.424;-1.948;2022-07-29T04:47:40;100213.53;;;14.95;77.37
43364;BME280;40636;52.424;-1.948;2022-07-29T04:50:08;100208.25;;;14.93;78.00
43364;BME280;40636;52.424;-1.948;2022-07-29T04:52:36;100214.34;;;14.90;78.23
43364;BME280;40636;52.424;-1.948;2022-07-29T04:55:04;100220.41;;;14.92;78.10
43364;BME280;40636;52.424;-1.948;2022-07-29T04:57:31;100216.28;;;14.90;78.55
43364;BME280;40636;52.424;-1.948;2022-07-29T04:59:58;100217.94;;;14.91;78.98
43364;BME280;40636;52.424;-1.948;2022-07-29T05:02:25;100215.72;;;14.93;79.08
43364;BME280;40636;52.424;-1.948;2022-07-29T05:04:52;100219.88;;;14.90;79.89
43364;BME280;40636;52.424;-1.948;2022-07-29T05:07:19;100219.03;;;14.90;79.71
43364;BME280;40636;52.424;-1.948;2022-07-29T05:09:46;100225.09;;;14.87;79.74
43364;BME280;40636;52.424;-1.948;2022-07-29T05:12:13;100230.34;;;14.88;79.96
43364;BME280;40636;52.424;-1.948;2022-07-29T05:14:40;100233.94;;;14.89;80.62
43364;BME280;40636;52.424;-1.948;2022-07-29T05:17:07;100235.34;;;14.91;79.96
43364;BME280;40636;52.424;-1.948;2022-07-29T05:19:34;100233.94;;;14.89;80.23
43364;BME280;40636;52.424;-1.948;2022-07-29T05:22:05;100233.69;;;14.90;81.21
43364;BME280;40636;52.424;-1.948;2022-07-29T05:24:32;100231.16;;;14.89;81.42
43364;BME280;40636;52.424;-1.948;2022-07-29T05:26:58;100236.16;;;14.87;81.97
43364;BME280;40636;52.424;-1.948;2022-07-29T05:29:25;100234.22;;;14.87;82.02
43364;BME280;40636;52.424;-1.948;2022-07-29T05:32:11;100235.56;;;14.85;82.23
43364;BME280;40636;52.424;-1.948;2022-07-29T05:34:38;100241.09;;;14.85;82.79
43364;BME280;40636;52.424;-1.948;2022-07-29T05:37:18;100230.63;;;14.87;82.71
43364;BME280;40636;52.424;-1.948;2022-07-29T05:39:44;100234.50;;;14.91;82.50
43364;BME280;40636;52.424;-1.948;2022-07-29T05:42:14;100248.88;;;14.93;83.35
43364;BME280;40636;52.424;-1.948;2022-07-29T05:44:41;100248.06;;;14.97;83.06
43364;BME280;40636;52.424;-1.948;2022-07-29T05:47:08;100245.03;;;14.99;83.14
43364;BME280;40636;52.424;-1.948;2022-07-29T05:49:35;100245.03;;;14.99;82.98
43364;BME280;40636;52.424;-1.948;2022-07-29T05:52:02;100248.88;;;14.98;83.19
43364;BME280;40636;52.424;-1.948;2022-07-29T05:54:29;100252.22;;;15.00;83.57
43364;BME280;40636;52.424;-1.948;2022-07-29T05:56:56;100258.28;;;15.07;83.50
43364;BME280;40636;52.424;-1.948;2022-07-29T05:59:23;100251.94;;;15.07;83.95
43364;BME280;40636;52.424;-1.948;2022-07-29T06:01:55;100261.06;;;15.12;83.37
43364;BME280;40636;52.424;-1.948;2022-07-29T06:04:23;100262.19;;;15.16;84.02
43364;BME280;40636;52.424;-1.948;2022-07-29T06:06:50;100263.06;;;15.22;84.16
43364;BME280;40636;52.424;-1.948;2022-07-29T06:09:17;100262.22;;;15.27;83.35
43364;BME280;40636;52.424;-1.948;2022-07-29T06:11:45;100263.88;;;15.33;83.72
43364;BME280;40636;52.424;-1.948;2022-07-29T06:14:13;100262.22;;;15.37;83.33
43364;BME280;40636;52.424;-1.948;2022-07-29T06:16:41;100259.47;;;15.37;83.32
43364;BME280;40636;52.424;-1.948;2022-07-29T06:19:08;100263.63;;;15.44;84.05
43364;BME280;40636;52.424;-1.948;2022-07-29T06:21:35;100266.41;;;15.44;83.38
43364;BME280;40636;52.424;-1.948;2022-07-29T06:24:07;100261.69;;;15.50;83.59
43364;BME280;40636;52.424;-1.948;2022-07-29T06:26:34;100255.06;;;15.56;83.21
43364;BME280;40636;52.424;-1.948;2022-07-29T06:29:06;100257.28;;;15.59;83.24
43364;BME280;40636;52.424;-1.948;2022-07-29T06:31:33;100260.59;;;15.66;83.29
43364;BME280;40636;52.424;-1.948;2022-07-29T06:34:00;100270.03;;;15.65;83.16
43364;BME280;40636;52.424;-1.948;2022-07-29T06:36:29;100260.88;;;15.75;83.93
43364;BME280;40636;52.424;-1.948;2022-07-29T06:38:55;100265.34;;;15.81;84.22
43364;BME280;40636;52.424;-1.948;2022-07-29T06:41:23;100266.44;;;15.90;82.86
43364;BME280;40636;52.424;-1.948;2022-07-29T06:43:50;100269.19;;;15.95;82.42
43364;BME280;40636;52.424;-1.948;2022-07-29T06:46:21;100269.19;;;16.01;83.22
43364;BME280;40636;52.424;-1.948;2022-07-29T06:48:49;100272.22;;;16.04;82.85
43364;BME280;40636;52.424;-1.948;2022-07-29T06:51:16;100264.75;;;16.10;83.29
43364;BME280;40636;52.424;-1.948;2022-07-29T06:53:52;100269.72;;;16.13;82.95
43364;BME280;40636;52.424;-1.948;2022-07-29T06:56:30;100273.59;;;16.07;83.74
43364;BME280;40636;52.424;-1.948;2022-07-29T06:58:57;100277.19;;;16.12;82.72
43364;BME280;40636;52.424;-1.948;2022-07-29T07:01:24;100282.16;;;16.15;83.63
43364;BME280;40636;52.424;-1.948;2022-07-29T07:03:51;100275.78;;;16.20;82.82
43364;BME280;40636;52.424;-1.948;2022-07-29T07:06:18;100278.53;;;16.25;82.10
43364;BME280;40636;52.424;-1.948;2022-07-29T07:08:44;100268.56;;;16.29;82.03
43364;BME280;40636;52.424;-1.948;2022-07-29T07:11:11;100277.69;;;16.45;81.34
43364;BME280;40636;52.424;-1.948;2022-07-29T07:13:38;100269.25;;;16.70;82.54
43364;BME280;40636;52.424;-1.948;2022-07-29T07:16:08;100271.97;;;16.96;81.55
43364;BME280;40636;52.424;-1.948;2022-07-29T07:18:36;100272.41;;;17.18;79.92
43364;BME280;40636;52.424;-1.948;2022-07-29T07:21:02;100275.84;;;17.44;79.67
43364;BME280;40636;52.424;-1.948;2022-07-29T07:23:31;100276.22;;;17.67;78.62
43364;BME280;40636;52.424;-1.948;2022-07-29T07:25:58;100280.50;;;17.88;77.45
43364;BME280;40636;52.424;-1.948;2022-07-29T07:28:25;100283.44;;;18.02;74.90
43364;BME280;40636;52.424;-1.948;2022-07-29T07:30:52;100284.06;;;18.23;75.47
43364;BME280;40636;52.424;-1.948;2022-07-29T07:33:19;100288.16;;;18.31;73.14
43364;BME280;40636;52.424;-1.948;2022-07-29T07:35:46;100286.28;;;18.50;72.51
43364;BME280;40636;52.424;-1.948;2022-07-29T07:38:13;100281.06;;;18.43;72.66
43364;BME280;40636;52.424;-1.948;2022-07-29T07:40:41;100292.31;;;18.57;72.23
43364;BME280;40636;52.424;-1.948;2022-07-29T07:43:08;100286.00;;;18.75;74.56
43364;BME280;40636;52.424;-1.948;2022-07-29T07:45:35;100292.44;;;18.95;72.11
43364;BME280;40636;52.424;-1.948;2022-07-29T07:48:04;100296.88;;;18.96;71.05
43364;BME280;40636;52.424;-1.948;2022-07-29T07:50:31;100292.97;;;18.97;70.08
43364;BME280;40636;52.424;-1.948;2022-07-29T07:52:58;100296.03;;;18.77;70.08
43364;BME280;40636;52.424;-1.948;2022-07-29T07:55:26;100298.88;;;18.66;70.76
43364;BME280;40636;52.424;-1.948;2022-07-29T07:57:54;100295.06;;;18.62;70.96
43364;BME280;40636;52.424;-1.948;2022-07-29T08:00:21;100288.69;;;18.57;71.66
43364;BME280;40636;52.424;-1.948;2022-07-29T08:02:49;100283.97;;;18.57;71.73
43364;BME280;40636;52.424;-1.948;2022-07-29T08:05:17;100283.88;;;18.67;71.81
43364;BME280;40636;52.424;-1.948;2022-07-29T08:07:45;100286.38;;;18.69;71.34
43364;BME280;40636;52.424;-1.948;2022-07-29T08:10:15;100282.13;;;18.77;70.33
43364;BME280;40636;52.424;-1.948;2022-07-29T08:13:09;100284.44;;;18.64;70.40
43364;BME280;40636;52.424;-1.948;2022-07-29T08:15:39;100284.09;;;18.71;70.46
43364;BME280;40636;52.424;-1.948;2022-07-29T08:18:07;100282.94;;;18.77;70.15
43364;BME280;40636;52.424;-1.948;2022-07-29T08:20:35;100281.50;;;19.04;70.11
43364;BME280;40636;52.424;-1.948;2022-07-29T08:23:03;100273.59;;;19.30;69.07
43364;BME280;40636;52.424;-1.948;2022-07-29T08:25:31;100277.22;;;19.49;68.63
43364;BME280;40636;52.424;-1.948;2022-07-29T08:28:00;100272.31;;;19.60;65.39
43364;BME280;40636;52.424;-1.948;2022-07-29T08:30:27;100276.41;;;19.67;65.21
43364;BME280;40636;52.424;-1.948;2022-07-29T08:32:54;100265.19;;;19.72;64.17
43364;BME280;40636;52.424;-1.948;2022-07-29T08:35:22;100263.53;;;19.71;64.94
43364;BME280;40636;52.424;-1.948;2022-07-29T08:37:50;100275.69;;;19.75;65.23
43364;BME280;40636;52.424;-1.948;2022-07-29T08:40:19;100270.75;;;19.72;65.36
43364;BME280;40636;52.424;-1.948;2022-07-29T08:42:57;100278.47;;;19.75;64.52
43364;BME280;40636;52.424;-1.948;2022-07-29T08:45:24;100277.38;;;19.76;63.70
43364;BME280;40636;52.424;-1.948;2022-07-29T08:47:52;100270.97;;;19.76;63.49
43364;BME280;40636;52.424;-1.948;2022-07-29T08:50:19;100273.03;;;19.84;63.97
43364;BME280;40636;52.424;-1.948;2022-07-29T08:52:47;100272.75;;;19.86;63.34
43364;BME280;40636;52.424;-1.948;2022-07-29T08:55:16;100267.28;;;19.81;63.73
43364;BME280;40636;52.424;-1.948;2022-07-29T08:57:47;100269.69;;;19.68;63.77
43364;BME280;40636;52.424;-1.948;2022-07-29T09:00:23;100260.81;;;19.66;64.02
43364;BME280;40636;52.424;-1.948;2022-07-29T09:02:56;100267.88;;;19.77;65.52
43364;BME280;40636;52.424;-1.948;2022-07-29T09:05:26;100271.06;;;19.85;64.11
43364;BME280;40636;52.424;-1.948;2022-07-29T09:07:53;100271.44;;;19.97;64.94
43364;BME280;40636;52.424;-1.948;2022-07-29T09:10:22;100260.53;;;20.14;64.67
43364;BME280;40636;52.424;-1.948;2022-07-29T09:12:49;100266.34;;;20.32;62.38
43364;BME280;40636;52.424;-1.948;2022-07-29T09:15:17;100262.84;;;20.40;62.00
43364;BME280;40636;52.424;-1.948;2022-07-29T09:17:48;100266.78;;;20.52;61.34
43364;BME280;40636;52.424;-1.948;2022-07-29T09:20:18;100266.72;;;20.58;60.66
43364;BME280;40636;52.424;-1.948;2022-07-29T09:22:45;100266.78;;;20.66;61.21
43364;BME280;40636;52.424;-1.948;2022-07-29T09:28:06;100257.94;;;20.64;59.60
43364;BME280;40636;52.424;-1.948;2022-07-29T09:30:35;100261.84;;;20.63;57.63
43364;BME280;40636;52.424;-1.948;2022-07-29T09:33:03;100255.63;;;20.66;58.84
43364;BME280;40636;52.424;-1.948;2022-07-29T09:35:30;100261.03;;;20.76;58.40
43364;BME280;40636;52.424;-1.948;2022-07-29T09:37:57;100267.00;;;20.84;55.96
43364;BME280;40636;52.424;-1.948;2022-07-29T09:40:35;100264.41;;;20.87;55.93
43364;BME280;40636;52.424;-1.948;2022-07-29T09:43:12;100265.78;;;20.90;55.70
43364;BME280;40636;52.424;-1.948;2022-07-29T09:45:39;100271.03;;;20.77;56.22
43364;BME280;40636;52.424;-1.948;2022-07-29T09:48:18;100273.63;;;20.74;55.92
43364;BME280;40636;52.424;-1.948;2022-07-29T09:50:46;100264.31;;;20.65;53.30
43364;BME280;40636;52.424;-1.948;2022-07-29T09:53:36;100273.00;;;20.63;56.72
43364;BME280;40636;52.424;-1.948;2022-07-29T09:56:04;100271.38;;;20.76;56.24
43364;BME280;40636;52.424;-1.948;2022-07-29T09:58:31;100268.03;;;20.88;55.50
43364;BME280;40636;52.424;-1.948;2022-07-29T10:01:01;100267.81;;;20.98;54.65
43364;BME280;40636;52.424;-1.948;2022-07-29T10:03:28;100261.59;;;21.01;56.11
43364;BME280;40636;52.424;-1.948;2022-07-29T10:06:09;100261.81;;;21.05;53.65
43364;BME280;40636;52.424;-1.948;2022-07-29T10:08:37;100261.34;;;21.25;53.69
43364;BME280;40636;52.424;-1.948;2022-07-29T10:11:15;100264.78;;;21.36;53.46
43364;BME280;40636;52.424;-1.948;2022-07-29T10:13:45;100264.84;;;21.44;52.92
43364;BME280;40636;52.424;-1.948;2022-07-29T10:16:14;100257.75;;;21.61;54.12
43364;BME280;40636;52.424;-1.948;2022-07-29T10:18:43;100263.19;;;21.66;50.74
43364;BME280;40636;52.424;-1.948;2022-07-29T10:21:10;100268.84;;;21.74;52.45
43364;BME280;40636;52.424;-1.948;2022-07-29T10:23:57;100270.81;;;21.74;51.92
43364;BME280;40636;52.424;-1.948;2022-07-29T10:26:27;100273.25;;;21.67;50.77
43364;BME280;40636;52.424;-1.948;2022-07-29T10:28:56;100276.09;;;21.53;52.08
43364;BME280;40636;52.424;-1.948;2022-07-29T10:31:30;100275.44;;;21.56;51.13
43364;BME280;40636;52.424;-1.948;2022-07-29T10:36:56;100273.06;;;21.63;51.90
43364;BME280;40636;52.424;-1.948;2022-07-29T10:40:31;100269.38;;;21.76;52.33
43364;BME280;40636;52.424;-1.948;2022-07-29T10:43:06;100277.69;;;21.90;52.16
43364;BME280;40636;52.424;-1.948;2022-07-29T10:45:41;100278.75;;;22.03;51.00
43364;BME280;40636;52.424;-1.948;2022-07-29T10:48:09;100273.13;;;22.17;52.25
43364;BME280;40636;52.424;-1.948;2022-07-29T10:50:55;100272.66;;;22.23;50.93
43364;BME280;40636;52.424;-1.948;2022-07-29T10:53:23;100273.75;;;22.14;49.87
43364;BME280;40636;52.424;-1.948;2022-07-29T10:55:52;100269.38;;;22.21;49.35
43364;BME280;40636;52.424;-1.948;2022-07-29T10:58:23;100262.69;;;22.09;48.89
43364;BME280;40636;52.424;-1.948;2022-07-29T11:00:52;100266.78;;;22.11;50.77
43364;BME280;40636;52.424;-1.948;2022-07-29T11:03:47;100269.53;;;22.25;50.37
43364;BME280;40636;52.424;-1.948;2022-07-29T11:07:07;100268.44;;;22.35;51.33
43364;BME280;40636;52.424;-1.948;2022-07-29T11:09:37;100265.72;;;22.21;48.50
43364;BME280;40636;52.424;-1.948;2022-07-29T11:15:12;100246.47;;;22.19;51.01
43364;BME280;40636;52.424;-1.948;2022-07-29T11:20:47;100257.34;;;22.61;50.25
43364;BME280;40636;52.424;-1.948;2022-07-29T11:23:26;100252.63;;;22.78;49.14
43364;BME280;40636;52.424;-1.948;2022-07-29T11:31:41;100245.81;;;23.02;46.71
43364;BME280;40636;52.424;-1.948;2022-07-29T11:34:19;100239.06;;;22.94;48.58
43364;BME280;40636;52.424;-1.948;2022-07-29T11:39:34;100247.13;;;22.96;47.05
43364;BME280;40636;52.424;-1.948;2022-07-29T11:45:06;100232.47;;;22.90;48.55
43364;BME280;40636;52.424;-1.948;2022-07-29T11:47:56;100233.47;;;23.03;47.18
43364;BME280;40636;52.424;-1.948;2022-07-29T11:50:44;100230.16;;;23.01;48.04
43364;BME280;40636;52.424;-1.948;2022-07-29T11:53:14;100231.16;;;23.14;47.80
43364;BME280;40636;52.424;-1.948;2022-07-29T11:55:42;100233.47;;;23.29;48.86
43364;BME280;40636;52.424;-1.948;2022-07-29T11:58:30;100232.84;;;23.49;46.92
43364;BME280;40636;52.424;-1.948;2022-07-29T12:00:57;100231.50;;;23.55;46.95
43364;BME280;40636;52.424;-1.948;2022-07-29T12:03:30;100233.66;;;23.50;47.33
43364;BME280;40636;52.424;-1.948;2022-07-29T12:06:02;100226.22;;;23.63;48.13
43364;BME280;40636;52.424;-1.948;2022-07-29T12:08:40;100218.66;;;23.72;45.78
43364;BME280;40636;52.424;-1.948;2022-07-29T12:11:15;100223.44;;;23.71;45.70
43364;BME280;40636;52.424;-1.948;2022-07-29T12:13:46;100213.25;;;23.67;45.19
43364;BME280;40636;52.424;-1.948;2022-07-29T12:16:14;100212.91;;;23.68;46.06
43364;BME280;40636;52.424;-1.948;2022-07-29T12:19:02;100211.56;;;23.74;45.22
43364;BME280;40636;52.424;-1.948;2022-07-29T12:21:50;100220.91;;;24.04;45.53
43364;BME280;40636;52.424;-1.948;2022-07-29T12:24:25;100215.78;;;23.98;43.90
43364;BME280;40636;52.424;-1.948;2022-07-29T12:26:55;100210.03;;;23.94;45.91
43364;BME280;40636;52.424;-1.948;2022-07-29T12:29:22;100209.34;;;23.97;44.30
43364;BME280;40636;52.424;-1.948;2022-07-29T12:32:02;100214.56;;;24.16;45.14
43364;BME280;40636;52.424;-1.948;2022-07-29T12:34:40;100201.03;;;24.27;43.43
43364;BME280;40636;52.424;-1.948;2022-07-29T12:37:08;100211.44;;;24.26;43.73
43364;BME280;40636;52.424;-1.948;2022-07-29T12:39:36;100206.31;;;24.20;44.81
43364;BME280;40636;52.424;-1.948;2022-07-29T12:42:13;100211.16;;;24.02;43.76
43364;BME280;40636;52.424;-1.948;2022-07-29T12:44:50;100213.06;;;23.81;44.70
43364;BME280;40636;52.424;-1.948;2022-07-29T12:47:18;100213.38;;;23.53;44.34
43364;BME280;40636;52.424;-1.948;2022-07-29T12:49:47;100209.91;;;23.39;43.80
43364;BME280;40636;52.424;-1.948;2022-07-29T12:54:51;100205.97;;;23.48;45.45
43364;BME280;40636;52.424;-1.948;2022-07-29T12:57:18;100213.53;;;23.48;45.86
43364;BME280;40636;52.424;-1.948;2022-07-29T13:00:04;100218.00;;;23.40;45.93
43364;BME280;40636;52.424;-1.948;2022-07-29T13:02:34;100218.81;;;23.41;46.14
43364;BME280;40636;52.424;-1.948;2022-07-29T13:05:04;100217.84;;;23.37;44.40
43364;BME280;40636;52.424;-1.948;2022-07-29T13:07:32;100222.63;;;23.36;44.88
43364;BME280;40636;52.424;-1.948;2022-07-29T13:10:21;100232.50;;;23.34;43.72
43364;BME280;40636;52.424;-1.948;2022-07-29T13:13:07;100231.50;;;23.03;43.81
43364;BME280;40636;52.424;-1.948;2022-07-29T13:15:37;100228.53;;;23.00;45.48
43364;BME280;40636;52.424;-1.948;2022-07-29T13:18:17;100224.91;;;23.08;45.25
43364;BME280;40636;52.424;-1.948;2022-07-29T13:20:52;100227.22;;;23.23;44.86
43364;BME280;40636;52.424;-1.948;2022-07-29T13:23:18;100231.19;;;23.22;43.97
43364;BME280;40636;52.424;-1.948;2022-07-29T13:25:45;100234.63;;;23.28;43.75
43364;BME280;40636;52.424;-1.948;2022-07-29T13:28:12;100231.31;;;23.00;44.46
43364;BME280;40636;52.424;-1.948;2022-07-29T13:30:40;100235.59;;;22.97;44.58
43364;BME280;40636;52.424;-1.948;2022-07-29T13:33:10;100229.19;;;23.06;45.15
43364;BME280;40636;52.424;-1.948;2022-07-29T13:35:37;100237.50;;;22.88;45.74
43364;BME280;40636;52.424;-1.948;2022-07-29T13:38:05;100235.91;;;22.96;45.19
43364;BME280;40636;52.424;-1.948;2022-07-29T13:40:32;100235.28;;;22.99;45.63